Whiteville, Louisiana
Current Conditions -  °F | °C
As of 2:15 PM on Friday 31 Oct 2014 (Local Time) from KOPL Reporting Station
Clear Clear  
Wind Chill: 73°   Ceiling: Unl
Heat Index: 73°   Visibility: 10mi
Dew Point: 45°   Wind: 16mph
Humidity: 38%   Direction: 350°N
Pressure: 30.09"   Gusts: 20mph
Location:  30.9328°N, 92.1876°W
Report Text: KOPL 311915Z AUTO 35014G17KT 10SM CLR 23/07 A3009 RMK AO2 T02250074
Loading
Personal Weather Stations






























Interactive Weather Map
Tropical Storm Tracking
New forecast layout! Learn more

10-Day Weather Forecast

Advertisements
Track Severe Weather on mobile